sensor_id;sensor_type;location;lat;lon;timestamp;P1;durP1;ratioP1;P2;durP2;ratioP2
19782;SDS011;10051;40.294;-3.754;2023-05-10T00:00:46;2.67;;;0.73;;
19782;SDS011;10051;40.294;-3.754;2023-05-10T00:03:11;0.93;;;0.60;;
19782;SDS011;10051;40.294;-3.754;2023-05-10T00:05:37;4.53;;;0.52;;
19782;SDS011;10051;40.294;-3.754;2023-05-10T00:08:02;2.92;;;0.50;;
19782;SDS011;10051;40.294;-3.754;2023-05-10T00:10:28;1.75;;;0.57;;
19782;SDS011;10051;40.294;-3.754;2023-05-10T00:12:54;0.35;;;0.30;;
19782;SDS011;10051;40.294;-3.754;2023-05-10T00:15:19;0.57;;;0.40;;
19782;SDS011;10051;40.294;-3.754;2023-05-10T00:17:45;2.70;;;0.40;;
19782;SDS011;10051;40.294;-3.754;2023-05-10T00:20:13;2.50;;;0.50;;
19782;SDS011;10051;40.294;-3.754;2023-05-10T00:22:38;0.70;;;0.40;;
19782;SDS011;10051;40.294;-3.754;2023-05-10T00:25:04;1.52;;;0.35;;
19782;SDS011;10051;40.294;-3.754;2023-05-10T00:27:31;0.55;;;0.20;;
19782;SDS011;10051;40.294;-3.754;2023-05-10T00:29:56;0.75;;;0.38;;
19782;SDS011;10051;40.294;-3.754;2023-05-10T00:32:22;0.60;;;0.38;;
19782;SDS011;10051;40.294;-3.754;2023-05-10T00:34:47;0.52;;;0.40;;
19782;SDS011;10051;40.294;-3.754;2023-05-10T00:37:13;0.88;;;0.45;;
19782;SDS011;10051;40.294;-3.754;2023-05-10T00:39:38;0.50;;;0.50;;
19782;SDS011;10051;40.294;-3.754;2023-05-10T00:42:07;3.10;;;0.50;;
19782;SDS011;10051;40.294;-3.754;2023-05-10T00:44:32;1.73;;;0.50;;
19782;SDS011;10051;40.294;-3.754;2023-05-10T00:46:58;0.60;;;0.50;;
19782;SDS011;10051;40.294;-3.754;2023-05-10T00:49:24;2.08;;;0.57;;
19782;SDS011;10051;40.294;-3.754;2023-05-10T00:51:50;2.00;;;0.45;;
19782;SDS011;10051;40.294;-3.754;2023-05-10T00:54:16;1.30;;;0.55;;
19782;SDS011;10051;40.294;-3.754;2023-05-10T00:56:41;1.40;;;0.30;;
19782;SDS011;10051;40.294;-3.754;2023-05-10T00:59:13;1.75;;;0.40;;
19782;SDS011;10051;40.294;-3.754;2023-05-10T01:01:41;0.30;;;0.30;;
19782;SDS011;10051;40.294;-3.754;2023-05-10T01:04:11;0.45;;;0.40;;
19782;SDS011;10051;40.294;-3.754;2023-05-10T01:06:42;0.68;;;0.30;;
19782;SDS011;10051;40.294;-3.754;2023-05-10T01:09:07;0.30;;;0.30;;
19782;SDS011;10051;40.294;-3.754;2023-05-10T01:11:36;8.40;;;0.50;;
19782;SDS011;10051;40.294;-3.754;2023-05-10T01:14:03;3.13;;;0.60;;
19782;SDS011;10051;40.294;-3.754;2023-05-10T01:16:32;1.02;;;0.40;;
19782;SDS011;10051;40.294;-3.754;2023-05-10T01:19:01;0.60;;;0.40;;
19782;SDS011;10051;40.294;-3.754;2023-05-10T01:27:17;1.67;;;0.45;;
19782;SDS011;10051;40.294;-3.754;2023-05-10T01:35:49;0.73;;;0.30;;
19782;SDS011;10051;40.294;-3.754;2023-05-10T01:38:31;0.70;;;0.40;;
19782;SDS011;10051;40.294;-3.754;2023-05-10T01:43:57;0.70;;;0.40;;
19782;SDS011;10051;40.294;-3.754;2023-05-10T01:46:35;0.68;;;0.47;;
19782;SDS011;10051;40.294;-3.754;2023-05-10T01:49:03;1.58;;;0.50;;
19782;SDS011;10051;40.294;-3.754;2023-05-10T01:51:50;0.65;;;0.40;;
19782;SDS011;10051;40.294;-3.754;2023-05-10T01:54:20;1.08;;;0.40;;
19782;SDS011;10051;40.294;-3.754;2023-05-10T01:56:47;1.70;;;0.77;;
19782;SDS011;10051;40.294;-3.754;2023-05-10T01:59:20;1.13;;;0.50;;
19782;SDS011;10051;40.294;-3.754;2023-05-10T02:01:47;2.38;;;0.50;;
19782;SDS011;10051;40.294;-3.754;2023-05-10T02:04:15;1.20;;;0.40;;
19782;SDS011;10051;40.294;-3.754;2023-05-10T02:06:42;0.77;;;0.70;;
19782;SDS011;10051;40.294;-3.754;2023-05-10T02:09:10;0.70;;;0.40;;
19782;SDS011;10051;40.294;-3.754;2023-05-10T02:11:41;1.05;;;0.50;;
19782;SDS011;10051;40.294;-3.754;2023-05-10T02:14:09;2.05;;;0.50;;
19782;SDS011;10051;40.294;-3.754;2023-05-10T02:16:36;0.40;;;0.40;;
19782;SDS011;10051;40.294;-3.754;2023-05-10T02:19:04;1.05;;;0.47;;
19782;SDS011;10051;40.294;-3.754;2023-05-10T02:21:31;1.08;;;0.70;;
19782;SDS011;10051;40.294;-3.754;2023-05-10T02:23:57;2.95;;;0.55;;
19782;SDS011;10051;40.294;-3.754;2023-05-10T02:26:25;1.10;;;0.50;;
19782;SDS011;10051;40.294;-3.754;2023-05-10T02:28:51;2.17;;;0.50;;
19782;SDS011;10051;40.294;-3.754;2023-05-10T02:31:22;0.82;;;0.50;;
19782;SDS011;10051;40.294;-3.754;2023-05-10T02:33:48;1.30;;;0.50;;
19782;SDS011;10051;40.294;-3.754;2023-05-10T02:36:17;0.63;;;0.40;;
19782;SDS011;10051;40.294;-3.754;2023-05-10T02:38:45;0.55;;;0.40;;
19782;SDS011;10051;40.294;-3.754;2023-05-10T02:41:12;1.15;;;0.40;;
19782;SDS011;10051;40.294;-3.754;2023-05-10T02:43:39;1.83;;;0.60;;
19782;SDS011;10051;40.294;-3.754;2023-05-10T02:46:05;2.25;;;0.60;;
19782;SDS011;10051;40.294;-3.754;2023-05-10T02:48:33;0.85;;;0.47;;
19782;SDS011;10051;40.294;-3.754;2023-05-10T02:51:00;1.25;;;0.70;;
19782;SDS011;10051;40.294;-3.754;2023-05-10T02:53:31;1.75;;;0.55;;
19782;SDS011;10051;40.294;-3.754;2023-05-10T02:56:01;1.27;;;0.60;;
19782;SDS011;10051;40.294;-3.754;2023-05-10T02:58:32;1.25;;;0.70;;
19782;SDS011;10051;40.294;-3.754;2023-05-10T03:00:59;2.22;;;0.60;;
19782;SDS011;10051;40.294;-3.754;2023-05-10T03:03:25;3.47;;;0.60;;
19782;SDS011;10051;40.294;-3.754;2023-05-10T03:05:54;3.40;;;0.50;;
19782;SDS011;10051;40.294;-3.754;2023-05-10T03:08:21;2.92;;;0.55;;
19782;SDS011;10051;40.294;-3.754;2023-05-10T03:10:51;1.65;;;0.65;;
19782;SDS011;10051;40.294;-3.754;2023-05-10T03:16:44;2.92;;;0.60;;
19782;SDS011;10051;40.294;-3.754;2023-05-10T03:19:26;2.00;;;0.60;;
19782;SDS011;10051;40.294;-3.754;2023-05-10T03:21:59;1.38;;;0.63;;
19782;SDS011;10051;40.294;-3.754;2023-05-10T03:24:32;1.55;;;0.68;;
19782;SDS011;10051;40.294;-3.754;2023-05-10T03:27:01;2.22;;;0.60;;
19782;SDS011;10051;40.294;-3.754;2023-05-10T03:29:31;2.78;;;0.60;;
19782;SDS011;10051;40.294;-3.754;2023-05-10T03:31:58;2.40;;;0.60;;
19782;SDS011;10051;40.294;-3.754;2023-05-10T03:34:24;1.25;;;0.63;;
19782;SDS011;10051;40.294;-3.754;2023-05-10T03:36:53;1.75;;;0.65;;
19782;SDS011;10051;40.294;-3.754;2023-05-10T03:39:18;1.98;;;1.00;;
19782;SDS011;10051;40.294;-3.754;2023-05-10T03:41:44;2.25;;;0.73;;
19782;SDS011;10051;40.294;-3.754;2023-05-10T03:44:10;2.05;;;0.63;;
19782;SDS011;10051;40.294;-3.754;2023-05-10T03:46:35;3.42;;;0.80;;
19782;SDS011;10051;40.294;-3.754;2023-05-10T03:49:04;1.50;;;0.60;;
19782;SDS011;10051;40.294;-3.754;2023-05-10T03:51:35;2.28;;;0.57;;
19782;SDS011;10051;40.294;-3.754;2023-05-10T03:54:01;1.15;;;0.55;;
19782;SDS011;10051;40.294;-3.754;2023-05-10T03:56:26;1.25;;;0.70;;
19782;SDS011;10051;40.294;-3.754;2023-05-10T03:58:52;1.52;;;0.70;;
19782;SDS011;10051;40.294;-3.754;2023-05-10T04:01:18;2.70;;;0.70;;
19782;SDS011;10051;40.294;-3.754;2023-05-10T04:03:46;2.53;;;0.60;;
19782;SDS011;10051;40.294;-3.754;2023-05-10T04:06:14;1.58;;;0.60;;
19782;SDS011;10051;40.294;-3.754;2023-05-10T04:08:40;1.58;;;0.70;;
19782;SDS011;10051;40.294;-3.754;2023-05-10T04:11:08;1.63;;;0.70;;
19782;SDS011;10051;40.294;-3.754;2023-05-10T04:13:36;2.42;;;0.88;;
19782;SDS011;10051;40.294;-3.754;2023-05-10T04:16:04;1.42;;;0.75;;
19782;SDS011;10051;40.294;-3.754;2023-05-10T04:18:30;2.78;;;0.90;;
19782;SDS011;10051;40.294;-3.754;2023-05-10T04:20:57;2.30;;;0.80;;
19782;SDS011;10051;40.294;-3.754;2023-05-10T04:23:22;2.17;;;0.80;;
19782;SDS011;10051;40.294;-3.754;2023-05-10T04:25:48;2.22;;;0.80;;
19782;SDS011;10051;40.294;-3.754;2023-05-10T04:28:14;2.22;;;0.90;;
19782;SDS011;10051;40.294;-3.754;2023-05-10T04:30:39;2.08;;;0.85;;
19782;SDS011;10051;40.294;-3.754;2023-05-10T04:33:05;3.00;;;0.93;;
19782;SDS011;10051;40.294;-3.754;2023-05-10T04:35:31;2.88;;;0.90;;
19782;SDS011;10051;40.294;-3.754;2023-05-10T04:37:56;2.22;;;0.80;;
19782;SDS011;10051;40.294;-3.754;2023-05-10T04:40:22;2.35;;;0.80;;
19782;SDS011;10051;40.294;-3.754;2023-05-10T04:42:48;2.88;;;0.80;;
19782;SDS011;10051;40.294;-3.754;2023-05-10T04:45:13;2.63;;;0.85;;
19782;SDS011;10051;40.294;-3.754;2023-05-10T04:47:42;4.60;;;0.95;;
19782;SDS011;10051;40.294;-3.754;2023-05-10T04:50:07;6.90;;;1.15;;
19782;SDS011;10051;40.294;-3.754;2023-05-10T04:52:33;5.55;;;1.30;;
19782;SDS011;10051;40.294;-3.754;2023-05-10T04:54:59;1.88;;;0.70;;
19782;SDS011;10051;40.294;-3.754;2023-05-10T04:57:24;5.57;;;0.93;;
19782;SDS011;10051;40.294;-3.754;2023-05-10T04:59:50;2.55;;;0.93;;
19782;SDS011;10051;40.294;-3.754;2023-05-10T05:02:19;3.70;;;1.00;;
19782;SDS011;10051;40.294;-3.754;2023-05-10T05:04:45;3.00;;;1.00;;
19782;SDS011;10051;40.294;-3.754;2023-05-10T05:07:13;4.70;;;0.80;;
19782;SDS011;10051;40.294;-3.754;2023-05-10T05:09:41;3.72;;;0.95;;
19782;SDS011;10051;40.294;-3.754;2023-05-10T05:12:06;3.42;;;0.90;;
19782;SDS011;10051;40.294;-3.754;2023-05-10T05:14:32;3.40;;;1.17;;
19782;SDS011;10051;40.294;-3.754;2023-05-10T05:17:00;2.90;;;1.00;;
19782;SDS011;10051;40.294;-3.754;2023-05-10T05:19:26;2.83;;;1.00;;
19782;SDS011;10051;40.294;-3.754;2023-05-10T05:21:52;5.97;;;1.30;;
19782;SDS011;10051;40.294;-3.754;2023-05-10T05:24:18;2.88;;;1.15;;
19782;SDS011;10051;40.294;-3.754;2023-05-10T05:26:43;4.53;;;1.30;;
19782;SDS011;10051;40.294;-3.754;2023-05-10T05:29:11;2.90;;;1.02;;
19782;SDS011;10051;40.294;-3.754;2023-05-10T05:31:37;5.28;;;1.20;;
19782;SDS011;10051;40.294;-3.754;2023-05-10T05:34:02;3.88;;;0.95;;
19782;SDS011;10051;40.294;-3.754;2023-05-10T05:36:28;4.45;;;1.30;;
19782;SDS011;10051;40.294;-3.754;2023-05-10T05:38:54;4.60;;;1.15;;
19782;SDS011;10051;40.294;-3.754;2023-05-10T05:41:19;4.00;;;1.10;;
19782;SDS011;10051;40.294;-3.754;2023-05-10T05:43:46;4.72;;;1.30;;
19782;SDS011;10051;40.294;-3.754;2023-05-10T05:46:12;2.22;;;1.00;;
19782;SDS011;10051;40.294;-3.754;2023-05-10T05:48:37;3.42;;;1.10;;
19782;SDS011;10051;40.294;-3.754;2023-05-10T05:51:03;2.45;;;0.98;;
19782;SDS011;10051;40.294;-3.754;2023-05-10T05:53:29;6.50;;;1.10;;
19782;SDS011;10051;40.294;-3.754;2023-05-10T05:55:55;3.42;;;1.10;;
19782;SDS011;10051;40.294;-3.754;2023-05-10T05:58:23;4.95;;;1.10;;
19782;SDS011;10051;40.294;-3.754;2023-05-10T06:00:49;3.90;;;1.40;;
19782;SDS011;10051;40.294;-3.754;2023-05-10T06:03:18;6.57;;;1.40;;
19782;SDS011;10051;40.294;-3.754;2023-05-10T06:05:44;3.88;;;1.30;;
19782;SDS011;10051;40.294;-3.754;2023-05-10T06:08:09;5.22;;;1.70;;
19782;SDS011;10051;40.294;-3.754;2023-05-10T06:10:35;5.72;;;1.20;;
19782;SDS011;10051;40.294;-3.754;2023-05-10T06:13:01;4.63;;;1.20;;
19782;SDS011;10051;40.294;-3.754;2023-05-10T06:15:27;5.18;;;1.50;;
19782;SDS011;10051;40.294;-3.754;2023-05-10T06:17:52;6.50;;;1.50;;
19782;SDS011;10051;40.294;-3.754;2023-05-10T06:20:21;5.03;;;1.50;;
19782;SDS011;10051;40.294;-3.754;2023-05-10T06:22:47;8.60;;;1.50;;
19782;SDS011;10051;40.294;-3.754;2023-05-10T06:25:12;7.40;;;1.50;;
19782;SDS011;10051;40.294;-3.754;2023-05-10T06:27:39;6.50;;;1.40;;
19782;SDS011;10051;40.294;-3.754;2023-05-10T06:30:05;3.45;;;1.20;;
19782;SDS011;10051;40.294;-3.754;2023-05-10T06:32:31;5.28;;;1.30;;
19782;SDS011;10051;40.294;-3.754;2023-05-10T06:34:57;5.57;;;1.33;;
19782;SDS011;10051;40.294;-3.754;2023-05-10T06:37:22;5.40;;;1.33;;
19782;SDS011;10051;40.294;-3.754;2023-05-10T06:39:48;14.57;;;1.50;;
19782;SDS011;10051;40.294;-3.754;2023-05-10T06:42:13;3.15;;;1.38;;
19782;SDS011;10051;40.294;-3.754;2023-05-10T06:44:39;5.70;;;1.52;;
19782;SDS011;10051;40.294;-3.754;2023-05-10T06:47:04;7.15;;;1.40;;
19782;SDS011;10051;40.294;-3.754;2023-05-10T06:49:30;5.93;;;1.42;;
19782;SDS011;10051;40.294;-3.754;2023-05-10T06:51:56;4.70;;;1.27;;
19782;SDS011;10051;40.294;-3.754;2023-05-10T06:54:21;7.95;;;1.50;;
19782;SDS011;10051;40.294;-3.754;2023-05-10T06:56:48;3.95;;;1.30;;
19782;SDS011;10051;40.294;-3.754;2023-05-10T06:59:13;4.25;;;1.52;;
19782;SDS011;10051;40.294;-3.754;2023-05-10T07:01:40;4.28;;;1.58;;
19782;SDS011;10051;40.294;-3.754;2023-05-10T07:04:11;4.50;;;1.65;;
19782;SDS011;10051;40.294;-3.754;2023-05-10T07:06:37;6.40;;;1.60;;
19782;SDS011;10051;40.294;-3.754;2023-05-10T07:09:03;7.32;;;1.50;;
19782;SDS011;10051;40.294;-3.754;2023-05-10T07:11:29;7.22;;;1.50;;
19782;SDS011;10051;40.294;-3.754;2023-05-10T07:13:54;7.60;;;1.63;;
19782;SDS011;10051;40.294;-3.754;2023-05-10T07:16:20;6.63;;;1.40;;
19782;SDS011;10051;40.294;-3.754;2023-05-10T07:18:46;8.23;;;1.30;;
19782;SDS011;10051;40.294;-3.754;2023-05-10T07:21:11;9.27;;;1.70;;
19782;SDS011;10051;40.294;-3.754;2023-05-10T07:23:37;5.30;;;1.38;;
19782;SDS011;10051;40.294;-3.754;2023-05-10T07:26:03;4.50;;;1.30;;
19782;SDS011;10051;40.294;-3.754;2023-05-10T07:28:28;7.13;;;1.67;;
19782;SDS011;10051;40.294;-3.754;2023-05-10T07:30:54;9.90;;;1.30;;
19782;SDS011;10051;40.294;-3.754;2023-05-10T07:33:20;13.32;;;1.70;;
19782;SDS011;10051;40.294;-3.754;2023-05-10T07:35:45;7.03;;;1.40;;
19782;SDS011;10051;40.294;-3.754;2023-05-10T07:38:11;12.48;;;1.52;;
19782;SDS011;10051;40.294;-3.754;2023-05-10T07:40:39;8.63;;;1.50;;
19782;SDS011;10051;40.294;-3.754;2023-05-10T07:43:04;8.27;;;1.27;;
19782;SDS011;10051;40.294;-3.754;2023-05-10T07:45:30;5.85;;;1.20;;
19782;SDS011;10051;40.294;-3.754;2023-05-10T07:47:56;17.38;;;1.90;;
19782;SDS011;10051;40.294;-3.754;2023-05-10T07:50:21;7.05;;;1.30;;
19782;SDS011;10051;40.294;-3.754;2023-05-10T07:52:47;7.93;;;1.30;;
19782;SDS011;10051;40.294;-3.754;2023-05-10T07:55:13;6.50;;;1.38;;
19782;SDS011;10051;40.294;-3.754;2023-05-10T07:57:43;4.13;;;1.30;;
19782;SDS011;10051;40.294;-3.754;2023-05-10T08:00:09;7.45;;;1.23;;
19782;SDS011;10051;40.294;-3.754;2023-05-10T08:02:38;5.05;;;1.20;;
19782;SDS011;10051;40.294;-3.754;2023-05-10T08:05:04;4.30;;;1.17;;
19782;SDS011;10051;40.294;-3.754;2023-05-10T08:07:30;8.25;;;1.30;;
19782;SDS011;10051;40.294;-3.754;2023-05-10T08:09:55;6.38;;;1.40;;
19782;SDS011;10051;40.294;-3.754;2023-05-10T08:12:27;8.93;;;1.58;;
19782;SDS011;10051;40.294;-3.754;2023-05-10T08:14:52;8.25;;;1.40;;
19782;SDS011;10051;40.294;-3.754;2023-05-10T08:17:18;5.75;;;1.50;;
19782;SDS011;10051;40.294;-3.754;2023-05-10T08:19:43;5.90;;;1.25;;
19782;SDS011;10051;40.294;-3.754;2023-05-10T08:22:12;5.00;;;1.25;;
19782;SDS011;10051;40.294;-3.754;2023-05-10T08:24:37;6.88;;;1.42;;
19782;SDS011;10051;40.294;-3.754;2023-05-10T08:27:07;9.10;;;1.27;;
19782;SDS011;10051;40.294;-3.754;2023-05-10T08:29:33;4.63;;;1.48;;
19782;SDS011;10051;40.294;-3.754;2023-05-10T08:31:59;6.28;;;1.33;;
19782;SDS011;10051;40.294;-3.754;2023-05-10T08:34:26;7.18;;;1.33;;
19782;SDS011;10051;40.294;-3.754;2023-05-10T08:36:52;4.82;;;1.30;;
19782;SDS011;10051;40.294;-3.754;2023-05-10T08:39:18;8.95;;;1.20;;
19782;SDS011;10051;40.294;-3.754;2023-05-10T08:41:44;5.15;;;1.52;;
19782;SDS011;10051;40.294;-3.754;2023-05-10T08:44:11;5.35;;;1.60;;
19782;SDS011;10051;40.294;-3.754;2023-05-10T08:46:37;4.68;;;1.30;;
19782;SDS011;10051;40.294;-3.754;2023-05-10T08:49:09;4.85;;;1.17;;
19782;SDS011;10051;40.294;-3.754;2023-05-10T08:51:40;5.90;;;1.23;;
19782;SDS011;10051;40.294;-3.754;2023-05-10T08:54:12;6.32;;;1.30;;
19782;SDS011;10051;40.294;-3.754;2023-05-10T08:56:38;6.97;;;1.35;;
19782;SDS011;10051;40.294;-3.754;2023-05-10T08:59:04;6.40;;;1.45;;
19782;SDS011;10051;40.294;-3.754;2023-05-10T09:01:30;3.58;;;1.20;;
19782;SDS011;10051;40.294;-3.754;2023-05-10T09:03:57;7.80;;;1.42;;
19782;SDS011;10051;40.294;-3.754;2023-05-10T09:06:23;5.80;;;1.45;;
19782;SDS011;10051;40.294;-3.754;2023-05-10T09:08:49;7.18;;;1.90;;
19782;SDS011;10051;40.294;-3.754;2023-05-10T09:11:16;2.22;;;1.05;;
19782;SDS011;10051;40.294;-3.754;2023-05-10T09:13:42;8.77;;;1.50;;
19782;SDS011;10051;40.294;-3.754;2023-05-10T09:16:08;4.22;;;1.23;;
19782;SDS011;10051;40.294;-3.754;2023-05-10T09:18:34;6.70;;;1.40;;
19782;SDS011;10051;40.294;-3.754;2023-05-10T09:21:00;5.18;;;1.50;;
19782;SDS011;10051;40.294;-3.754;2023-05-10T09:23:25;10.85;;;1.90;;
19782;SDS011;10051;40.294;-3.754;2023-05-10T09:26:06;3.63;;;1.33;;
19782;SDS011;10051;40.294;-3.754;2023-05-10T09:28:50;8.07;;;1.67;;
19782;SDS011;10051;40.294;-3.754;2023-05-10T09:31:17;7.53;;;1.52;;
19782;SDS011;10051;40.294;-3.754;2023-05-10T09:33:46;4.60;;;1.30;;
19782;SDS011;10051;40.294;-3.754;2023-05-10T09:36:13;9.02;;;1.45;;
19782;SDS011;10051;40.294;-3.754;2023-05-10T09:38:46;5.60;;;1.20;;
19782;SDS011;10051;40.294;-3.754;2023-05-10T09:41:20;4.90;;;1.15;;
19782;SDS011;10051;40.294;-3.754;2023-05-10T09:43:48;12.30;;;1.30;;
19782;SDS011;10051;40.294;-3.754;2023-05-10T09:46:14;6.55;;;1.45;;
19782;SDS011;10051;40.294;-3.754;2023-05-10T09:48:42;5.50;;;1.13;;
19782;SDS011;10051;40.294;-3.754;2023-05-10T09:51:09;5.63;;;1.40;;
19782;SDS011;10051;40.294;-3.754;2023-05-10T09:53:35;6.20;;;1.10;;
19782;SDS011;10051;40.294;-3.754;2023-05-10T09:56:00;5.85;;;1.20;;
19782;SDS011;10051;40.294;-3.754;2023-05-10T09:58:26;5.63;;;1.30;;
19782;SDS011;10051;40.294;-3.754;2023-05-10T10:00:51;8.20;;;1.45;;
19782;SDS011;10051;40.294;-3.754;2023-05-10T10:03:19;7.70;;;1.50;;
19782;SDS011;10051;40.294;-3.754;2023-05-10T10:05:46;5.50;;;1.38;;
19782;SDS011;10051;40.294;-3.754;2023-05-10T10:08:13;5.20;;;1.20;;
19782;SDS011;10051;40.294;-3.754;2023-05-10T10:10:39;7.43;;;1.40;;
19782;SDS011;10051;40.294;-3.754;2023-05-10T10:13:06;5.93;;;1.20;;
19782;SDS011;10051;40.294;-3.754;2023-05-10T10:15:32;6.97;;;1.15;;
19782;SDS011;10051;40.294;-3.754;2023-05-10T10:18:01;3.42;;;1.17;;
19782;SDS011;10051;40.294;-3.754;2023-05-10T10:20:29;5.50;;;1.30;;
19782;SDS011;10051;40.294;-3.754;2023-05-10T10:22:54;2.92;;;1.20;;
19782;SDS011;10051;40.294;-3.754;2023-05-10T10:25:22;8.82;;;1.38;;
19782;SDS011;10051;40.294;-3.754;2023-05-10T10:35:32;5.40;;;1.60;;
19782;SDS011;10051;40.294;-3.754;2023-05-10T10:37:59;9.15;;;1.50;;
19782;SDS011;10051;40.294;-3.754;2023-05-10T10:40:29;7.28;;;1.40;;
19782;SDS011;10051;40.294;-3.754;2023-05-10T10:43:21;5.47;;;1.50;;
19782;SDS011;10051;40.294;-3.754;2023-05-10T10:46:32;3.63;;;1.40;;
19782;SDS011;10051;40.294;-3.754;2023-05-10T10:48:49;4.28;;;1.23;;
19782;SDS011;10051;40.294;-3.754;2023-05-10T10:51:36;5.00;;;1.30;;
19782;SDS011;10051;40.294;-3.754;2023-05-10T10:54:09;5.43;;;1.33;;
19782;SDS011;10051;40.294;-3.754;2023-05-10T10:56:35;5.88;;;1.17;;
19782;SDS011;10051;40.294;-3.754;2023-05-10T10:59:01;4.85;;;1.10;;
19782;SDS011;10051;40.294;-3.754;2023-05-10T11:01:26;5.60;;;1.27;;
19782;SDS011;10051;40.294;-3.754;2023-05-10T11:06:31;6.57;;;1.50;;
19782;SDS011;10051;40.294;-3.754;2023-05-10T11:08:58;6.47;;;1.30;;
19782;SDS011;10051;40.294;-3.754;2023-05-10T11:11:24;5.25;;;1.50;;
19782;SDS011;10051;40.294;-3.754;2023-05-10T11:13:53;4.38;;;1.10;;
19782;SDS011;10051;40.294;-3.754;2023-05-10T11:16:28;3.00;;;1.15;;
19782;SDS011;10051;40.294;-3.754;2023-05-10T11:19:10;6.13;;;1.20;;
19782;SDS011;10051;40.294;-3.754;2023-05-10T11:24:36;2.60;;;1.27;;
19782;SDS011;10051;40.294;-3.754;2023-05-10T11:27:05;5.68;;;1.40;;
19782;SDS011;10051;40.294;-3.754;2023-05-10T11:29:31;7.63;;;1.30;;
19782;SDS011;10051;40.294;-3.754;2023-05-10T11:31:57;6.60;;;1.20;;
19782;SDS011;10051;40.294;-3.754;2023-05-10T11:34:24;5.70;;;1.30;;
19782;SDS011;10051;40.294;-3.754;2023-05-10T11:36:55;5.10;;;1.67;;
19782;SDS011;10051;40.294;-3.754;2023-05-10T11:39:22;3.50;;;1.10;;
19782;SDS011;10051;40.294;-3.754;2023-05-10T11:41:57;6.03;;;1.30;;
19782;SDS011;10051;40.294;-3.754;2023-05-10T11:44:24;5.20;;;1.40;;
19782;SDS011;10051;40.294;-3.754;2023-05-10T11:46:57;3.78;;;1.20;;
19782;SDS011;10051;40.294;-3.754;2023-05-10T11:49:24;5.10;;;1.10;;
19782;SDS011;10051;40.294;-3.754;2023-05-10T11:52:03;4.38;;;1.20;;
19782;SDS011;10051;40.294;-3.754;2023-05-10T11:54:30;5.70;;;1.30;;
19782;SDS011;10051;40.294;-3.754;2023-05-10T11:56:56;5.97;;;1.60;;
19782;SDS011;10051;40.294;-3.754;2023-05-10T11:59:21;4.72;;;1.17;;
19782;SDS011;10051;40.294;-3.754;2023-05-10T12:01:47;5.82;;;1.40;;
19782;SDS011;10051;40.294;-3.754;2023-05-10T12:04:16;4.00;;;1.38;;
19782;SDS011;10051;40.294;-3.754;2023-05-10T12:06:42;3.83;;;1.20;;
19782;SDS011;10051;40.294;-3.754;2023-05-10T12:09:07;4.38;;;1.10;;
19782;SDS011;10051;40.294;-3.754;2023-05-10T12:11:38;5.13;;;1.38;;
19782;SDS011;10051;40.294;-3.754;2023-05-10T12:14:05;4.07;;;1.17;;
19782;SDS011;10051;40.294;-3.754;2023-05-10T12:16:32;5.40;;;1.50;;
19782;SDS011;10051;40.294;-3.754;2023-05-10T12:18:58;3.92;;;1.25;;
19782;SDS011;10051;40.294;-3.754;2023-05-10T12:21:25;7.60;;;1.40;;
19782;SDS011;10051;40.294;-3.754;2023-05-10T12:23:54;11.10;;;2.58;;
19782;SDS011;10051;40.294;-3.754;2023-05-10T12:26:24;5.55;;;1.70;;
19782;SDS011;10051;40.294;-3.754;2023-05-10T12:28:52;5.10;;;1.42;;
19782;SDS011;10051;40.294;-3.754;2023-05-10T12:31:18;4.38;;;1.40;;
19782;SDS011;10051;40.294;-3.754;2023-05-10T12:33:44;3.95;;;1.15;;
19782;SDS011;10051;40.294;-3.754;2023-05-10T12:36:11;3.33;;;1.23;;
19782;SDS011;10051;40.294;-3.754;2023-05-10T12:38:40;4.43;;;1.30;;
19782;SDS011;10051;40.294;-3.754;2023-05-10T12:41:15;4.03;;;1.23;;
19782;SDS011;10051;40.294;-3.754;2023-05-10T12:43:42;3.03;;;1.20;;
19782;SDS011;10051;40.294;-3.754;2023-05-10T12:46:08;5.95;;;1.40;;
19782;SDS011;10051;40.294;-3.754;2023-05-10T12:48:35;4.47;;;1.20;;
19782;SDS011;10051;40.294;-3.754;2023-05-10T12:51:02;5.82;;;1.48;;
19782;SDS011;10051;40.294;-3.754;2023-05-10T12:53:30;4.40;;;1.45;;
19782;SDS011;10051;40.294;-3.754;2023-05-10T12:55:56;4.82;;;1.30;;
19782;SDS011;10051;40.294;-3.754;2023-05-10T12:58:22;5.63;;;1.30;;
19782;SDS011;10051;40.294;-3.754;2023-05-10T13:00:48;3.33;;;1.17;;
19782;SDS011;10051;40.294;-3.754;2023-05-10T13:03:18;6.10;;;1.20;;
19782;SDS011;10051;40.294;-3.754;2023-05-10T13:05:44;4.10;;;1.10;;
19782;SDS011;10051;40.294;-3.754;2023-05-10T13:08:17;4.43;;;1.10;;
19782;SDS011;10051;40.294;-3.754;2023-05-10T13:10:43;4.88;;;1.00;;
19782;SDS011;10051;40.294;-3.754;2023-05-10T13:13:11;2.85;;;1.23;;
19782;SDS011;10051;40.294;-3.754;2023-05-10T13:15:37;4.80;;;1.30;;
19782;SDS011;10051;40.294;-3.754;2023-05-10T13:18:03;3.50;;;1.05;;
19782;SDS011;10051;40.294;-3.754;2023-05-10T13:20:28;3.50;;;1.20;;
19782;SDS011;10051;40.294;-3.754;2023-05-10T13:22:54;9.60;;;1.33;;
19782;SDS011;10051;40.294;-3.754;2023-05-10T13:25:20;2.53;;;1.15;;
19782;SDS011;10051;40.294;-3.754;2023-05-10T13:27:45;4.13;;;1.17;;
19782;SDS011;10051;40.294;-3.754;2023-05-10T13:30:11;3.40;;;1.23;;
19782;SDS011;10051;40.294;-3.754;2023-05-10T13:32:37;6.07;;;1.10;;
19782;SDS011;10051;40.294;-3.754;2023-05-10T13:35:05;6.50;;;1.30;;
19782;SDS011;10051;40.294;-3.754;2023-05-10T13:37:32;2.75;;;1.20;;
19782;SDS011;10051;40.294;-3.754;2023-05-10T13:40:00;6.03;;;1.33;;
19782;SDS011;10051;40.294;-3.754;2023-05-10T13:42:26;3.50;;;1.13;;
19782;SDS011;10051;40.294;-3.754;2023-05-10T13:44:52;4.22;;;1.27;;
19782;SDS011;10051;40.294;-3.754;2023-05-10T13:47:18;7.10;;;1.27;;
19782;SDS011;10051;40.294;-3.754;2023-05-10T13:49:44;4.57;;;1.20;;
19782;SDS011;10051;40.294;-3.754;2023-05-10T13:52:09;6.30;;;1.20;;
19782;SDS011;10051;40.294;-3.754;2023-05-10T13:54:38;5.22;;;1.23;;
19782;SDS011;10051;40.294;-3.754;2023-05-10T13:57:04;3.58;;;1.20;;
19782;SDS011;10051;40.294;-3.754;2023-05-10T13:59:30;4.82;;;1.10;;
19782;SDS011;10051;40.294;-3.754;2023-05-10T14:01:59;3.60;;;1.02;;
19782;SDS011;10051;40.294;-3.754;2023-05-10T14:04:27;2.53;;;1.00;;
19782;SDS011;10051;40.294;-3.754;2023-05-10T14:06:53;3.03;;;1.25;;
19782;SDS011;10051;40.294;-3.754;2023-05-10T14:09:19;2.75;;;1.00;;
19782;SDS011;10051;40.294;-3.754;2023-05-10T14:11:45;3.88;;;1.20;;
19782;SDS011;10051;40.294;-3.754;2023-05-10T14:14:11;5.00;;;1.10;;
19782;SDS011;10051;40.294;-3.754;2023-05-10T14:16:41;3.90;;;1.20;;
19782;SDS011;10051;40.294;-3.754;2023-05-10T14:19:07;7.38;;;1.10;;
19782;SDS011;10051;40.294;-3.754;2023-05-10T14:21:33;2.28;;;0.80;;
19782;SDS011;10051;40.294;-3.754;2023-05-10T14:23:59;3.45;;;1.00;;
19782;SDS011;10051;40.294;-3.754;2023-05-10T14:26:24;4.93;;;2.20;;
19782;SDS011;10051;40.294;-3.754;2023-05-10T14:28:51;2.50;;;0.90;;
19782;SDS011;10051;40.294;-3.754;2023-05-10T14:31:20;6.13;;;0.93;;
19782;SDS011;10051;40.294;-3.754;2023-05-10T14:33:46;3.20;;;1.08;;
19782;SDS011;10051;40.294;-3.754;2023-05-10T14:36:12;3.95;;;1.00;;
19782;SDS011;10051;40.294;-3.754;2023-05-10T14:38:38;1.90;;;0.70;;
19782;SDS011;10051;40.294;-3.754;2023-05-10T14:41:04;3.75;;;0.95;;
19782;SDS011;10051;40.294;-3.754;2023-05-10T14:43:30;6.60;;;1.10;;
19782;SDS011;10051;40.294;-3.754;2023-05-10T14:45:56;5.82;;;0.90;;
19782;SDS011;10051;40.294;-3.754;2023-05-10T14:48:21;2.45;;;0.80;;
19782;SDS011;10051;40.294;-3.754;2023-05-10T14:50:47;4.20;;;0.90;;
19782;SDS011;10051;40.294;-3.754;2023-05-10T14:53:14;4.93;;;0.90;;
19782;SDS011;10051;40.294;-3.754;2023-05-10T14:55:40;1.67;;;0.90;;
19782;SDS011;10051;40.294;-3.754;2023-05-10T14:58:06;3.28;;;1.00;;
19782;SDS011;10051;40.294;-3.754;2023-05-10T15:00:31;2.97;;;0.90;;
19782;SDS011;10051;40.294;-3.754;2023-05-10T15:02:57;2.83;;;0.80;;
19782;SDS011;10051;40.294;-3.754;2023-05-10T15:05:22;2.42;;;0.90;;